Time;durP1;ratioP1;P1;durP2;ratioP2;P2;SDS_P1;SDS_P2;PMS_P1;PMS_P2;Temp;Humidity;BMP_temperature;BMP_pressure;BME280_temperature;BME280_humidity;BME280_pressure;Samples;Min_cycle;Max_cycle;Signal;HPM_P1;HPM_P2
2022/05/28 00:00:43;;;;;;;5.45;2.40;;;15.90;99.90;;;;;;4174392;28;20110;-61
2022/05/28 00:02:45;;;;;;;3.65;2.97;;;15.90;99.90;;;;;;4186497;28;20036;-61
2022/05/28 00:04:46;;;;;;;6.47;2.58;;;15.80;99.90;;;;;;4183787;28;20658;-62
2022/05/28 00:06:48;;;;;;;3.50;2.47;;;15.80;99.90;;;;;;4174300;28;20075;-61
2022/05/28 00:08:49;;;;;;;4.18;2.17;;;15.80;99.90;;;;;;4189197;28;20033;-62
2022/05/28 00:10:54;;;;;;;4.15;2.35;;;15.90;99.90;;;;;;4190356;28;20028;-64
2022/05/28 00:12:57;;;;;;;5.22;2.50;;;15.90;99.90;;;;;;4191059;28;20099;-61
2022/05/28 00:14:58;;;;;;;4.32;2.67;;;15.90;99.90;;;;;;4190338;28;20036;-63
2022/05/28 00:16:59;;;;;;;7.50;2.92;;;15.90;99.90;;;;;;4190968;28;20082;-62
2022/05/28 00:19:00;;;;;;;4.50;2.60;;;15.90;99.90;;;;;;4190408;28;20055;-63
2022/05/28 00:21:02;;;;;;;4.97;2.20;;;15.80;99.90;;;;;;4190474;28;20036;-61
2022/05/28 00:23:04;;;;;;;6.13;2.83;;;15.80;99.90;;;;;;4180504;28;20098;-61
2022/05/28 00:25:06;;;;;;;5.43;2.38;;;15.80;99.90;;;;;;4174217;28;20095;-61
2022/05/28 00:27:07;;;;;;;3.13;2.15;;;15.70;99.90;;;;;;4173946;28;20033;-61
2022/05/28 00:29:08;;;;;;;3.47;2.17;;;15.80;99.90;;;;;;4172419;28;20037;-62
2022/05/28 00:31:10;;;;;;;6.60;2.17;;;15.80;99.90;;;;;;4174134;28;20041;-61
2022/05/28 00:33:11;;;;;;;1.70;1.60;;;15.90;99.90;;;;;;4175158;28;20041;-61
2022/05/28 00:35:16;;;;;;;1.90;1.60;;;16.00;99.90;;;;;;4172674;28;20037;-61
2022/05/28 00:37:17;;;;;;;2.50;2.30;;;16.10;99.90;;;;;;4173827;28;20037;-60
2022/05/28 00:39:18;;;;;;;2.35;1.30;;;16.20;99.90;;;;;;4183033;28;20037;-64
2022/05/28 00:41:20;;;;;;;2.05;1.30;;;16.40;99.90;;;;;;4190192;28;20036;-62
2022/05/28 00:43:22;;;;;;;2.83;1.75;;;16.50;99.90;;;;;;4190243;28;20036;-65
2022/05/28 00:45:23;;;;;;;2.38;1.58;;;16.70;99.90;;;;;;4189911;28;20070;-62
2022/05/28 00:47:25;;;;;;;2.00;1.50;;;16.80;99.90;;;;;;4190234;28;20032;-63
2022/05/28 00:49:29;;;;;;;2.55;1.40;;;16.90;99.90;;;;;;4190125;28;20090;-61
2022/05/28 00:51:40;;;;;;;2.13;1.50;;;17.00;99.90;;;;;;4188818;28;20058;-61
2022/05/28 00:53:42;;;;;;;5.85;1.73;;;17.10;99.90;;;;;;4182755;28;20568;-63
2022/05/28 00:55:43;;;;;;;1.98;1.27;;;17.10;99.90;;;;;;4173855;28;20095;-64
2022/05/28 00:57:45;;;;;;;2.42;1.50;;;17.20;99.90;;;;;;4173629;28;20074;-62
2022/05/28 00:59:46;;;;;;;2.25;2.05;;;17.30;99.90;;;;;;4173838;28;20029;-61
2022/05/28 01:01:48;;;;;;;1.35;1.17;;;17.30;99.90;;;;;;4173496;28;20036;-61
2022/05/28 01:04:02;;;;;;;2.17;1.13;;;17.40;99.90;;;;;;4189479;28;20037;-61
2022/05/28 01:06:21;;;;;;;2.78;2.00;;;17.50;99.90;;;;;;4190038;28;20044;-62
2022/05/28 01:08:50;;;;;;;2.35;1.40;;;17.50;99.90;;;;;;4189848;28;20029;-61
2022/05/28 01:11:05;;;;;;;3.15;1.13;;;17.40;99.90;;;;;;4189811;28;20025;-61
2022/05/28 01:13:29;;;;;;;3.13;1.77;;;17.40;99.90;;;;;;4189857;28;20091;-62
2022/05/28 01:15:35;;;;;;;5.75;1.60;;;17.40;99.90;;;;;;4189835;28;20028;-62
2022/05/28 01:18:04;;;;;;;2.10;1.42;;;17.30;99.90;;;;;;4180953;28;20056;-63
2022/05/28 01:20:16;;;;;;;4.68;1.65;;;17.20;99.90;;;;;;4173159;28;20079;-61
2022/05/28 01:22:35;;;;;;;5.38;1.70;;;17.20;99.90;;;;;;4173930;28;20468;-62
2022/05/28 01:25:07;;;;;;;2.50;1.50;;;17.10;99.90;;;;;;4172772;28;20044;-61
2022/05/28 01:27:12;;;;;;;1.45;1.25;;;17.10;99.90;;;;;;4172677;28;20106;-61
2022/05/28 01:29:17;;;;;;;1.95;1.50;;;17.10;99.90;;;;;;4172630;28;20033;-63
2022/05/28 01:31:20;;;;;;;3.35;1.50;;;17.00;99.90;;;;;;4173128;28;20075;-63
2022/05/28 01:33:22;;;;;;;2.65;1.60;;;17.00;99.90;;;;;;4172864;28;20436;-61
2022/05/28 01:35:26;;;;;;;2.40;1.52;;;16.90;99.90;;;;;;4173862;28;20040;-60
2022/05/28 01:37:30;;;;;;;2.15;1.63;;;16.90;99.90;;;;;;4173120;28;20059;-63
2022/05/28 01:39:32;;;;;;;3.13;1.98;;;16.90;99.90;;;;;;4172974;28;20090;-62
2022/05/28 01:41:37;;;;;;;4.22;1.20;;;16.80;99.90;;;;;;4172681;28;20029;-60
2022/05/28 01:43:41;;;;;;;3.58;2.00;;;16.80;99.90;;;;;;4173056;28;20813;-62
2022/05/28 01:45:47;;;;;;;3.88;1.48;;;16.70;99.90;;;;;;4172746;28;20475;-61
2022/05/28 01:47:50;;;;;;;4.88;1.77;;;16.70;99.90;;;;;;4173024;28;20036;-62
2022/05/28 01:49:52;;;;;;;2.25;1.80;;;16.60;99.90;;;;;;4172856;28;20110;-62
2022/05/28 01:51:56;;;;;;;6.13;1.92;;;16.60;99.90;;;;;;4183770;28;20041;-62
2022/05/28 01:54:13;;;;;;;3.63;1.55;;;16.50;99.90;;;;;;4189305;28;20032;-60
2022/05/28 01:56:15;;;;;;;2.33;1.20;;;16.50;99.90;;;;;;4189010;28;20036;-62
2022/05/28 01:58:16;;;;;;;1.73;1.20;;;16.50;99.90;;;;;;4189085;28;20036;-61
2022/05/28 02:00:18;;;;;;;3.60;1.50;;;16.50;99.90;;;;;;4187061;28;20032;-62
2022/05/28 02:02:19;;;;;;;3.75;1.42;;;16.40;99.90;;;;;;4172437;28;20427;-61
2022/05/28 02:04:20;;;;;;;1.40;1.30;;;16.40;99.90;;;;;;4172184;28;20021;-61
2022/05/28 02:06:21;;;;;;;2.15;1.20;;;16.40;99.90;;;;;;4172271;28;20032;-61
2022/05/28 02:08:24;;;;;;;4.60;1.50;;;16.30;99.90;;;;;;4172935;28;20045;-60
2022/05/28 02:10:26;;;;;;;4.10;1.55;;;16.30;99.90;;;;;;4172538;28;20067;-63
2022/05/28 02:12:33;;;;;;;1.50;1.30;;;16.30;99.90;;;;;;4172025;28;20046;-63
2022/05/28 02:14:49;;;;;;;2.45;1.38;;;16.30;99.90;;;;;;4172560;28;20037;-61
2022/05/28 02:16:59;;;;;;;4.40;1.25;;;16.40;99.90;;;;;;4155702;28;20107;-62
2022/05/28 02:19:05;;;;;;;5.57;1.58;;;16.30;99.90;;;;;;4155838;28;20042;-63
2022/05/28 02:21:14;;;;;;;1.42;1.33;;;16.40;99.90;;;;;;4156018;28;20033;-63
2022/05/28 02:23:21;;;;;;;2.15;1.50;;;16.30;99.90;;;;;;4187429;28;20032;-61
2022/05/28 02:25:33;;;;;;;3.80;1.55;;;16.30;99.90;;;;;;4188676;28;20046;-62
2022/05/28 02:27:39;;;;;;;4.40;1.40;;;16.30;99.90;;;;;;4189238;28;20100;-61
2022/05/28 02:29:41;;;;;;;4.53;2.15;;;16.20;99.90;;;;;;4173261;28;20118;-62
2022/05/28 02:31:47;;;;;;;3.83;1.27;;;16.20;99.90;;;;;;4172601;28;20036;-62
2022/05/28 02:33:49;;;;;;;2.00;1.10;;;16.20;99.90;;;;;;4171714;28;20137;-62
2022/05/28 02:35:50;;;;;;;1.10;1.00;;;16.20;99.90;;;;;;4172193;28;20083;-64
2022/05/28 02:37:51;;;;;;;3.65;1.10;;;16.10;99.90;;;;;;4171519;28;20106;-61
2022/05/28 02:39:52;;;;;;;3.10;1.48;;;16.00;99.90;;;;;;4172445;28;20366;-62
2022/05/28 02:41:53;;;;;;;3.35;1.42;;;16.00;99.90;;;;;;4171489;28;20040;-61
2022/05/28 02:43:54;;;;;;;5.05;1.27;;;16.00;99.90;;;;;;4171969;28;20041;-61
2022/05/28 02:45:55;;;;;;;4.20;1.48;;;15.90;99.90;;;;;;4171764;28;20023;-61
2022/05/28 02:47:56;;;;;;;1.52;1.10;;;15.90;99.90;;;;;;4172032;28;20025;-62
2022/05/28 02:49:58;;;;;;;5.20;2.10;;;16.00;99.90;;;;;;4171986;28;20547;-62
2022/05/28 02:52:05;;;;;;;2.55;1.60;;;16.00;99.90;;;;;;4179648;28;20414;-61
2022/05/28 02:54:06;;;;;;;1.88;1.40;;;16.10;99.90;;;;;;4187203;28;20067;-61
2022/05/28 02:56:08;;;;;;;1.73;1.20;;;16.10;99.90;;;;;;4188752;28;20044;-62
2022/05/28 02:58:09;;;;;;;3.22;1.08;;;16.20;99.90;;;;;;4188844;28;20083;-63
2022/05/28 03:00:14;;;;;;;2.80;1.33;;;16.20;99.90;;;;;;4188818;28;20038;-61
2022/05/28 03:02:15;;;;;;;3.17;1.98;;;16.20;99.90;;;;;;4188634;28;20037;-61
2022/05/28 03:04:17;;;;;;;3.00;1.38;;;16.20;99.90;;;;;;4188340;28;20098;-61
2022/05/28 03:06:19;;;;;;;3.00;1.05;;;16.20;99.90;;;;;;4183931;28;20087;-61
2022/05/28 03:08:21;;;;;;;2.70;1.00;;;16.20;99.90;;;;;;4171683;28;20478;-62
2022/05/28 03:10:22;;;;;;;2.67;1.40;;;16.20;99.90;;;;;;4172135;28;20025;-61
2022/05/28 03:12:23;;;;;;;1.65;1.00;;;16.10;99.90;;;;;;4171492;28;20029;-61
2022/05/28 03:14:25;;;;;;;4.68;1.42;;;16.10;99.90;;;;;;4173454;28;20444;-62
2022/05/28 03:16:27;;;;;;;2.50;1.30;;;16.10;99.90;;;;;;4171784;28;20385;-62
2022/05/28 03:18:28;;;;;;;1.75;0.98;;;16.00;99.90;;;;;;4175081;28;20079;-64
2022/05/28 03:20:30;;;;;;;1.77;0.80;;;16.00;99.90;;;;;;4174769;28;20037;-65
2022/05/28 03:22:31;;;;;;;1.63;1.30;;;16.00;99.90;;;;;;4175307;28;20036;-61
2022/05/28 03:24:32;;;;;;;1.83;1.65;;;15.90;99.90;;;;;;4176277;28;20160;-63
2022/05/28 03:26:34;;;;;;;5.60;2.17;;;15.90;99.90;;;;;;4174860;28;20024;-61
2022/05/28 03:28:35;;;;;;;1.92;1.45;;;16.00;99.90;;;;;;4175016;28;20516;-61
2022/05/28 03:30:37;;;;;;;1.83;1.52;;;15.90;99.90;;;;;;4174760;28;20037;-62
2022/05/28 03:32:38;;;;;;;4.97;1.90;;;15.80;99.90;;;;;;4175169;28;20037;-63
2022/05/28 03:34:39;;;;;;;2.58;2.20;;;15.80;99.90;;;;;;4174712;28;20563;-62
2022/05/28 03:36:40;;;;;;;4.00;1.40;;;15.70;99.90;;;;;;4174794;28;20025;-61
2022/05/28 03:38:41;;;;;;;2.55;1.40;;;15.70;99.90;;;;;;4184403;28;20056;-61
2022/05/28 03:40:42;;;;;;;3.13;1.52;;;15.60;99.90;;;;;;4191183;28;20028;-61
2022/05/28 03:42:43;;;;;;;1.50;1.40;;;15.60;99.90;;;;;;4190879;28;20505;-61
2022/05/28 03:44:45;;;;;;;2.90;1.50;;;15.60;99.90;;;;;;4190912;28;20094;-61
2022/05/28 03:46:47;;;;;;;2.28;1.38;;;15.60;99.90;;;;;;4190652;28;20062;-61
2022/05/28 03:48:49;;;;;;;6.65;4.05;;;15.60;99.90;;;;;;4190907;28;20071;-64
2022/05/28 03:50:50;;;;;;;2.70;1.42;;;15.60;99.90;;;;;;4191302;28;20036;-62
2022/05/28 03:52:51;;;;;;;3.95;2.05;;;15.60;99.90;;;;;;4188873;28;20098;-62
2022/05/28 03:54:53;;;;;;;1.77;1.25;;;15.50;99.90;;;;;;4191100;28;20036;-62
2022/05/28 03:57:00;;;;;;;2.42;1.55;;;15.50;99.90;;;;;;4190892;28;20101;-62
2022/05/28 03:59:04;;;;;;;6.05;1.52;;;15.60;99.90;;;;;;4191141;28;20081;-63
2022/05/28 04:01:05;;;;;;;2.00;1.55;;;15.60;99.90;;;;;;4181979;28;20106;-63
2022/05/28 04:03:07;;;;;;;1.40;1.30;;;15.50;99.90;;;;;;4174157;28;20033;-65
2022/05/28 04:05:09;;;;;;;1.83;1.73;;;15.50;99.90;;;;;;4174234;28;20037;-63
2022/05/28 04:07:12;;;;;;;3.78;1.40;;;15.50;99.90;;;;;;4174560;28;20029;-62
2022/05/28 04:09:13;;;;;;;7.75;1.13;;;15.50;99.90;;;;;;4173994;28;20048;-62
2022/05/28 04:11:15;;;;;;;2.90;1.80;;;15.50;99.90;;;;;;4182134;28;20094;-64
2022/05/28 04:13:16;;;;;;;1.77;1.27;;;15.50;99.90;;;;;;4190092;28;20044;-62
2022/05/28 04:15:17;;;;;;;1.45;0.80;;;15.50;99.90;;;;;;4190831;28;20036;-62
2022/05/28 04:17:18;;;;;;;2.85;1.40;;;15.50;99.90;;;;;;4190380;28;20040;-61
2022/05/28 04:19:20;;;;;;;2.25;1.20;;;15.50;99.90;;;;;;4190467;28;20090;-63
2022/05/28 04:21:21;;;;;;;2.25;0.82;;;15.50;99.90;;;;;;4190629;28;20094;-62
2022/05/28 04:23:22;;;;;;;3.00;1.33;;;15.60;99.90;;;;;;4188776;28;20048;-62
2022/05/28 04:25:23;;;;;;;1.30;1.10;;;15.60;99.90;;;;;;4190235;28;20040;-61
2022/05/28 04:27:25;;;;;;;1.02;0.75;;;15.60;99.90;;;;;;4190386;28;20032;-64
2022/05/28 04:29:26;;;;;;;2.78;0.70;;;15.60;99.90;;;;;;4189292;28;20025;-65
2022/05/28 04:31:27;;;;;;;1.55;0.90;;;15.60;99.90;;;;;;4190287;28;20427;-61
2022/05/28 04:33:28;;;;;;;1.20;0.90;;;15.60;99.90;;;;;;4190410;28;20079;-61
2022/05/28 04:35:29;;;;;;;1.27;0.93;;;15.60;99.90;;;;;;4190218;28;20500;-63
2022/05/28 04:37:31;;;;;;;1.88;0.45;;;15.60;99.90;;;;;;4184644;28;20049;-61
2022/05/28 04:39:32;;;;;;;0.60;0.50;;;15.70;99.90;;;;;;4173627;28;20084;-63
2022/05/28 04:41:33;;;;;;;1.60;0.55;;;15.60;99.90;;;;;;4179029;28;20751;-62
2022/05/28 04:43:34;;;;;;;1.38;0.77;;;15.60;99.90;;;;;;4189862;28;20028;-64
2022/05/28 04:45:35;;;;;;;1.73;0.60;;;15.60;99.90;;;;;;4189030;28;20082;-62
2022/05/28 04:47:37;;;;;;;4.55;0.90;;;15.70;99.90;;;;;;4189600;28;20900;-62
2022/05/28 04:49:38;;;;;;;3.70;0.60;;;15.80;99.90;;;;;;4189900;28;20041;-61
2022/05/28 04:51:39;;;;;;;1.70;0.60;;;15.80;99.90;;;;;;4189581;28;20041;-61
2022/05/28 04:53:40;;;;;;;2.25;0.80;;;15.80;99.90;;;;;;4190303;28;20024;-63
2022/05/28 04:55:41;;;;;;;1.73;0.60;;;15.90;99.90;;;;;;4179842;28;20017;-63
2022/05/28 04:57:43;;;;;;;1.38;0.68;;;15.90;99.90;;;;;;4164195;28;21249;-61
2022/05/28 04:59:44;;;;;;;1.90;0.50;;;15.80;99.90;;;;;;4172495;28;20041;-63
2022/05/28 05:01:45;;;;;;;2.55;0.70;;;15.70;99.90;;;;;;4172658;28;20075;-62
2022/05/28 05:03:46;;;;;;;3.58;1.08;;;15.70;99.90;;;;;;4173031;28;20021;-62
2022/05/28 05:05:47;;;;;;;1.45;0.70;;;15.80;99.90;;;;;;4172180;28;20516;-62
2022/05/28 05:07:49;;;;;;;1.58;0.70;;;15.80;99.90;;;;;;4173111;28;20026;-61
2022/05/28 05:09:50;;;;;;;1.67;0.65;;;15.80;99.90;;;;;;4172820;28;20101;-62
2022/05/28 05:11:51;;;;;;;3.67;1.10;;;15.80;99.90;;;;;;4172132;28;20135;-62
2022/05/28 05:13:53;;;;;;;1.58;0.88;;;15.80;99.90;;;;;;4172122;28;20091;-62
2022/05/28 05:15:54;;;;;;;2.00;0.77;;;15.90;99.90;;;;;;4172746;28;20801;-63
2022/05/28 05:17:55;;;;;;;1.60;0.88;;;15.90;99.90;;;;;;4172213;28;20079;-62
2022/05/28 05:19:56;;;;;;;4.32;0.60;;;15.90;99.90;;;;;;4172398;28;20029;-63
2022/05/28 05:21:57;;;;;;;4.80;1.52;;;15.90;99.90;;;;;;4172130;28;20095;-62
2022/05/28 05:23:58;;;;;;;0.68;0.57;;;15.90;99.90;;;;;;4173116;28;20025;-66
2022/05/28 05:26:00;;;;;;;1.80;0.52;;;15.80;99.90;;;;;;4171970;28;20431;-63
2022/05/28 05:28:01;;;;;;;2.45;0.70;;;15.80;99.90;;;;;;4188948;28;20451;-62
2022/05/28 05:30:03;;;;;;;1.50;0.52;;;15.80;99.90;;;;;;4189475;28;20028;-64
2022/05/28 05:32:05;;;;;;;3.92;0.88;;;15.80;99.90;;;;;;4188908;28;20098;-65
2022/05/28 05:34:07;;;;;;;1.92;0.60;;;15.80;99.90;;;;;;4188929;28;20415;-63
2022/05/28 05:36:08;;;;;;;1.33;0.60;;;15.80;99.90;;;;;;4188324;28;20036;-61
2022/05/28 05:38:09;;;;;;;2.35;0.60;;;15.80;99.90;;;;;;4188468;28;20439;-63
2022/05/28 05:40:11;;;;;;;2.22;0.93;;;15.80;99.90;;;;;;4188077;28;20101;-65
2022/05/28 05:42:13;;;;;;;1.30;0.52;;;15.80;99.90;;;;;;4183513;28;20040;-62
2022/05/28 05:44:14;;;;;;;2.53;0.80;;;15.80;99.90;;;;;;4182283;28;20032;-60
2022/05/28 05:46:16;;;;;;;4.03;0.70;;;15.80;99.90;;;;;;4171585;28;20040;-62
2022/05/28 05:48:17;;;;;;;3.05;0.70;;;15.80;99.90;;;;;;4172014;28;20554;-62
2022/05/28 05:50:18;;;;;;;4.20;0.77;;;15.80;99.90;;;;;;4172678;28;20048;-64
2022/05/28 05:52:19;;;;;;;4.00;1.15;;;15.80;99.90;;;;;;4172540;28;20550;-61
2022/05/28 05:54:21;;;;;;;3.25;0.60;;;15.80;99.90;;;;;;4172680;28;20086;-64
2022/05/28 05:56:22;;;;;;;4.97;0.90;;;15.80;99.90;;;;;;4171899;28;20079;-61
2022/05/28 05:58:23;;;;;;;2.47;0.73;;;15.80;99.90;;;;;;4171836;28;20107;-63
2022/05/28 06:00:24;;;;;;;6.18;1.40;;;15.80;99.90;;;;;;4171787;28;20804;-63
2022/05/28 06:02:25;;;;;;;4.75;1.38;;;15.80;99.90;;;;;;4172277;28;20032;-62
2022/05/28 06:04:26;;;;;;;2.88;1.25;;;15.80;99.90;;;;;;4172228;28;20148;-63
2022/05/28 06:06:27;;;;;;;4.80;1.38;;;15.90;99.90;;;;;;4171821;28;20033;-60
2022/05/28 06:08:29;;;;;;;1.58;1.00;;;15.90;99.90;;;;;;4172390;28;20029;-64
2022/05/28 06:10:30;;;;;;;2.33;1.00;;;16.00;99.90;;;;;;4172008;28;20567;-63
2022/05/28 06:12:31;;;;;;;1.00;0.95;;;16.10;99.90;;;;;;4172245;28;20106;-62
2022/05/28 06:14:32;;;;;;;1.95;1.13;;;16.10;99.90;;;;;;4171487;28;20115;-63
2022/05/28 06:16:34;;;;;;;3.33;0.70;;;16.20;99.90;;;;;;4172117;28;20570;-65
2022/05/28 06:18:35;;;;;;;1.58;0.60;;;16.20;99.90;;;;;;4172468;28;20439;-63
2022/05/28 06:20:36;;;;;;;2.67;1.05;;;16.20;99.90;;;;;;4172287;28;20033;-65
2022/05/28 06:22:37;;;;;;;2.55;1.70;;;16.30;99.90;;;;;;4172024;28;20029;-63
2022/05/28 06:24:38;;;;;;;8.18;5.28;;;16.30;99.90;;;;;;4172706;28;20041;-59
2022/05/28 06:26:40;;;;;;;3.10;1.20;;;16.30;99.90;;;;;;4171847;28;20493;-60
2022/05/28 06:28:41;;;;;;;1.15;0.95;;;16.30;99.90;;;;;;4171844;28;20486;-60
2022/05/28 06:30:44;;;;;;;2.00;1.65;;;16.30;99.90;;;;;;4172114;28;20032;-61
2022/05/28 06:32:45;;;;;;;1.77;1.48;;;16.40;99.90;;;;;;4171507;28;20025;-62
2022/05/28 06:34:47;;;;;;;2.58;1.10;;;16.40;99.90;;;;;;4186739;28;20032;-62
2022/05/28 06:36:48;;;;;;;2.47;1.10;;;16.50;99.90;;;;;;4188486;28;20439;-62
2022/05/28 06:38:49;;;;;;;1.02;0.77;;;16.50;99.90;;;;;;4186724;28;20036;-64
2022/05/28 06:40:51;;;;;;;2.05;0.60;;;16.50;99.90;;;;;;4171750;28;20036;-62
2022/05/28 06:42:55;;;;;;;1.67;1.08;;;16.50;99.90;;;;;;4172390;28;20036;-59
2022/05/28 06:44:56;;;;;;;3.63;1.10;;;16.40;99.90;;;;;;4171670;28;20044;-61
2022/05/28 06:46:57;;;;;;;2.50;0.93;;;16.40;99.90;;;;;;4184690;28;20403;-59
2022/05/28 06:48:59;;;;;;;7.43;0.95;;;16.40;99.90;;;;;;4187998;28;20549;-62
2022/05/28 06:51:03;;;;;;;1.23;0.73;;;16.40;99.90;;;;;;4185413;28;20086;-61
2022/05/28 06:53:08;;;;;;;3.50;0.70;;;16.40;99.90;;;;;;4174508;28;20029;-64
2022/05/28 06:55:09;;;;;;;1.02;0.55;;;16.50;99.90;;;;;;4176121;28;20029;-61
2022/05/28 06:57:11;;;;;;;1.17;0.77;;;16.40;99.90;;;;;;4174770;28;20393;-61
2022/05/28 06:59:12;;;;;;;2.08;0.70;;;16.40;99.90;;;;;;4175218;28;20098;-65
2022/05/28 07:01:15;;;;;;;2.17;0.93;;;16.40;99.90;;;;;;4174922;28;20017;-63
2022/05/28 07:03:18;;;;;;;2.63;1.08;;;16.40;99.90;;;;;;4174834;28;20025;-66
2022/05/28 07:05:20;;;;;;;2.00;0.57;;;16.50;99.90;;;;;;4175029;28;20045;-63
2022/05/28 07:07:21;;;;;;;0.90;0.60;;;16.50;99.90;;;;;;4190301;28;20041;-65
2022/05/28 07:09:22;;;;;;;2.28;0.77;;;16.50;99.90;;;;;;4189639;28;20579;-64
2022/05/28 07:11:23;;;;;;;2.40;0.50;;;16.50;99.90;;;;;;4191065;28;20184;-63
2022/05/28 07:13:26;;;;;;;1.13;0.65;;;16.50;99.90;;;;;;4190703;28;20840;-63
2022/05/28 07:15:27;;;;;;;1.10;0.80;;;16.50;99.90;;;;;;4191285;28;20074;-64
2022/05/28 07:17:28;;;;;;;1.05;0.60;;;16.50;99.90;;;;;;4191157;28;20062;-62
2022/05/28 07:19:29;;;;;;;2.38;0.55;;;16.50;99.90;;;;;;4191163;28;20032;-62
2022/05/28 07:21:31;;;;;;;1.23;0.50;;;16.60;99.90;;;;;;4189378;28;20040;-63
2022/05/28 07:23:32;;;;;;;1.08;0.63;;;16.70;99.90;;;;;;4191088;28;20082;-62
2022/05/28 07:25:34;;;;;;;1.65;0.65;;;16.80;99.90;;;;;;4191584;28;20036;-62
2022/05/28 07:27:35;;;;;;;1.95;0.88;;;16.90;99.90;;;;;;4191222;28;20133;-63
2022/05/28 07:29:36;;;;;;;1.67;0.73;;;16.90;99.90;;;;;;4182586;28;20016;-61
2022/05/28 07:31:37;;;;;;;1.85;0.70;;;17.00;99.90;;;;;;4174473;28;20033;-65
2022/05/28 07:33:44;;;;;;;1.65;0.60;;;17.00;99.90;;;;;;4174899;28;20041;-62
2022/05/28 07:35:46;;;;;;;3.30;0.75;;;17.00;99.90;;;;;;4174191;28;20013;-62
2022/05/28 07:37:48;;;;;;;1.23;0.30;;;17.00;99.90;;;;;;4181682;28;20048;-62
2022/05/28 07:39:49;;;;;;;0.70;0.47;;;16.90;99.90;;;;;;4190830;28;20122;-62
2022/05/28 07:41:50;;;;;;;0.65;0.32;;;16.90;99.90;;;;;;4190416;28;20045;-63
2022/05/28 07:43:52;;;;;;;4.72;0.93;;;16.80;99.90;;;;;;4191108;28;20082;-64
2022/05/28 07:45:53;;;;;;;2.78;0.90;;;16.80;99.90;;;;;;4185706;28;20455;-62
2022/05/28 07:47:55;;;;;;;4.25;0.93;;;16.80;99.90;;;;;;4188065;28;20041;-64
2022/05/28 07:49:57;;;;;;;2.90;0.50;;;16.70;99.90;;;;;;4190144;28;20568;-60
2022/05/28 07:51:58;;;;;;;1.73;0.57;;;16.70;99.90;;;;;;4190937;28;20025;-62
2022/05/28 07:53:59;;;;;;;1.23;0.52;;;16.70;99.90;;;;;;4190506;28;20033;-62
2022/05/28 07:56:05;;;;;;;1.17;0.40;;;16.70;99.90;;;;;;4182458;28;20036;-64
2022/05/28 07:58:12;;;;;;;3.80;1.75;;;16.70;99.90;;;;;;4173863;28;20029;-62
2022/05/28 08:00:14;;;;;;;6.03;1.30;;;16.70;99.90;;;;;;4175847;28;20037;-62
2022/05/28 08:02:15;;;;;;;1.75;0.82;;;16.70;99.90;;;;;;4173345;28;20040;-61
2022/05/28 08:04:17;;;;;;;3.38;1.35;;;16.70;99.90;;;;;;4173795;28;20045;-62
2022/05/28 08:06:19;;;;;;;2.55;0.75;;;16.70;99.90;;;;;;4173440;28;20044;-63
2022/05/28 08:08:22;;;;;;;4.50;1.27;;;16.70;99.90;;;;;;4173649;28;20041;-65
2022/05/28 08:10:24;;;;;;;5.75;1.00;;;16.70;99.90;;;;;;4180817;28;20025;-61
2022/05/28 08:12:25;;;;;;;5.00;1.30;;;16.80;99.90;;;;;;4180648;28;20090;-63
2022/05/28 08:14:26;;;;;;;2.00;0.77;;;16.70;99.90;;;;;;4178973;28;20032;-63
2022/05/28 08:16:27;;;;;;;8.60;2.10;;;16.60;99.90;;;;;;4181023;28;20419;-63
2022/05/28 08:18:29;;;;;;;9.65;2.17;;;16.60;99.90;;;;;;4178238;28;20041;-60
2022/05/28 08:23:08;;;;;;;1.75;0.77;;;16.60;99.90;;;;;;4176107;28;20033;-62
2022/05/28 08:25:09;;;;;;;0.90;0.60;;;16.60;99.90;;;;;;4174583;28;20062;-66
2022/05/28 08:27:10;;;;;;;7.70;2.00;;;16.60;99.90;;;;;;4180427;28;20074;-62
2022/05/28 08:29:12;;;;;;;2.55;1.00;;;16.60;99.90;;;;;;4178270;28;20085;-62
2022/05/28 08:31:13;;;;;;;10.25;2.60;;;16.50;99.90;;;;;;4188202;28;20048;-64
2022/05/28 08:33:17;;;;;;;5.05;1.42;;;16.50;99.90;;;;;;4190137;28;20028;-64
2022/05/28 08:35:18;;;;;;;2.15;1.10;;;16.50;99.90;;;;;;4189497;28;20086;-64
2022/05/28 08:37:19;;;;;;;3.03;0.90;;;16.50;99.90;;;;;;4189879;28;20307;-63
2022/05/28 08:39:20;;;;;;;1.02;0.90;;;16.50;99.90;;;;;;4189442;28;20168;-64
2022/05/28 08:41:46;;;;;;;2.15;0.60;;;16.40;99.90;;;;;;4189329;28;20153;-63
2022/05/28 08:44:04;;;;;;;1.55;0.70;;;16.40;99.90;;;;;;4189969;28;20045;-64
2022/05/28 08:46:10;;;;;;;1.00;0.40;;;16.30;99.90;;;;;;4189520;28;20040;-63
2022/05/28 08:48:15;;;;;;;2.65;1.30;;;16.30;99.90;;;;;;4188026;28;20052;-64
2022/05/28 08:50:16;;;;;;;4.10;1.30;;;16.30;99.90;;;;;;4189507;28;20033;-64
2022/05/28 08:52:47;;;;;;;3.47;1.58;;;16.30;99.90;;;;;;4188230;28;20076;-63
2022/05/28 08:55:11;;;;;;;0.80;0.77;;;16.30;99.90;;;;;;4189557;28;20090;-61
2022/05/28 08:57:19;;;;;;;2.47;1.05;;;16.40;99.90;;;;;;4189356;28;20048;-62
2022/05/28 08:59:58;;;;;;;4.35;1.50;;;16.40;99.90;;;;;;4189831;28;20052;-62
2022/05/28 09:02:01;;;;;;;1.90;0.90;;;16.40;99.90;;;;;;4189382;28;20102;-63
2022/05/28 09:04:07;;;;;;;1.98;0.77;;;16.30;99.90;;;;;;4189487;28;20082;-62
2022/05/28 09:06:17;;;;;;;2.25;0.65;;;16.20;99.90;;;;;;4189659;28;20032;-62
2022/05/28 09:08:38;;;;;;;4.22;0.88;;;16.10;99.90;;;;;;4189090;28;20058;-63
2022/05/28 09:10:48;;;;;;;3.20;0.93;;;16.10;99.90;;;;;;4189553;28;20032;-62
2022/05/28 09:12:59;;;;;;;2.58;1.10;;;16.00;99.90;;;;;;4189237;28;20861;-62
2022/05/28 09:15:00;;;;;;;4.85;1.00;;;16.00;99.90;;;;;;4188665;28;20038;-62
2022/05/28 09:17:29;;;;;;;2.08;1.40;;;15.90;99.90;;;;;;4188893;28;20672;-63
2022/05/28 09:19:35;;;;;;;1.55;1.02;;;15.90;99.90;;;;;;4182861;28;20456;-62
2022/05/28 09:21:39;;;;;;;1.30;1.00;;;15.90;99.90;;;;;;4189176;28;20546;-61
2022/05/28 09:23:48;;;;;;;6.00;1.30;;;16.00;99.90;;;;;;4188663;28;20082;-63
2022/05/28 09:25:49;;;;;;;6.15;1.60;;;16.10;99.90;;;;;;4188920;28;20024;-63
2022/05/28 09:28:25;;;;;;;4.90;2.63;;;16.00;99.90;;;;;;4189039;28;20559;-62
2022/05/28 09:30:47;;;;;;;4.72;1.60;;;15.90;99.90;;;;;;4189316;28;20408;-63
2022/05/28 09:33:06;;;;;;;5.10;1.40;;;15.80;99.90;;;;;;4188936;28;20028;-65
2022/05/28 09:35:20;;;;;;;4.13;1.42;;;15.70;99.90;;;;;;4188790;28;20106;-63
2022/05/28 09:37:29;;;;;;;4.57;1.67;;;15.80;99.90;;;;;;4188617;28;20074;-64
2022/05/28 09:39:59;;;;;;;4.68;1.40;;;15.80;99.90;;;;;;4188757;28;20082;-64
2022/05/28 09:42:28;;;;;;;6.22;2.35;;;15.70;99.90;;;;;;4172503;28;20056;-63
2022/05/28 09:44:40;;;;;;;7.30;2.47;;;15.70;99.90;;;;;;4188790;28;20062;-63
2022/05/28 09:46:43;;;;;;;5.15;1.48;;;15.70;99.90;;;;;;4188757;28;20041;-62
2022/05/28 09:48:47;;;;;;;4.15;1.45;;;15.70;99.90;;;;;;4188531;28;20036;-65
2022/05/28 09:50:48;;;;;;;2.38;0.98;;;15.70;99.90;;;;;;4188397;28;20115;-63
2022/05/28 09:55:21;;;;;;;1.10;0.70;;;15.70;99.90;;;;;;4188622;28;20431;-63
2022/05/28 09:57:28;;;;;;;6.30;2.42;;;15.60;99.90;;;;;;4188712;28;20024;-64
2022/05/28 09:59:32;;;;;;;3.10;1.08;;;15.50;99.90;;;;;;4188602;28;20880;-62
2022/05/28 10:01:34;;;;;;;1.65;0.73;;;15.50;99.90;;;;;;4188484;28;20083;-64
2022/05/28 10:06:03;;;;;;;3.33;1.08;;;15.80;99.90;;;;;;4189027;28;20082;-63
2022/05/28 10:08:11;;;;;;;1.00;0.88;;;15.90;99.90;;;;;;4188294;28;20024;-63
2022/05/28 10:10:12;;;;;;;2.65;1.08;;;16.10;99.90;;;;;;4188253;28;20094;-63
2022/05/28 10:12:20;;;;;;;3.55;1.50;;;16.20;99.90;;;;;;4187921;28;20021;-64
2022/05/28 10:14:23;;;;;;;9.27;2.38;;;16.20;99.90;;;;;;4188400;28;20109;-62
2022/05/28 10:16:37;;;;;;;23.23;5.18;;;16.10;99.90;;;;;;4187996;28;20040;-63
2022/05/28 10:18:44;;;;;;;21.92;3.92;;;16.20;99.90;;;;;;4188124;28;20536;-62
2022/05/28 10:21:02;;;;;;;5.25;2.83;;;16.20;99.90;;;;;;4187832;28;20029;-62
2022/05/28 10:23:13;;;;;;;4.65;2.42;;;16.30;99.90;;;;;;4188415;28;20036;-64
2022/05/28 10:25:37;;;;;;;1.65;1.45;;;16.40;99.90;;;;;;4187935;28;20048;-64
2022/05/28 10:27:49;;;;;;;2.17;1.20;;;16.40;99.90;;;;;;4188311;28;20021;-62
2022/05/28 10:29:52;;;;;;;2.60;2.08;;;16.40;99.90;;;;;;4188572;28;20050;-62
2022/05/28 10:31:55;;;;;;;3.83;1.60;;;16.50;99.90;;;;;;4188570;28;20033;-63
2022/05/28 10:33:57;;;;;;;1.70;1.10;;;16.60;99.90;;;;;;4187835;28;20427;-63
2022/05/28 10:36:10;;;;;;;2.35;0.88;;;16.60;99.90;;;;;;4188528;28;20507;-63
2022/05/28 10:38:11;;;;;;;4.68;1.25;;;16.60;99.90;;;;;;4187986;28;20070;-64
2022/05/28 10:40:19;;;;;;;1.10;0.80;;;16.70;99.90;;;;;;4187833;28;20520;-63
2022/05/28 10:42:20;;;;;;;2.45;1.00;;;16.80;99.90;;;;;;4188277;28;20024;-64
2022/05/28 10:44:23;;;;;;;4.00;1.83;;;16.90;99.90;;;;;;4188051;28;20109;-64
2022/05/28 10:46:49;;;;;;;4.18;0.93;;;16.90;99.90;;;;;;4187795;28;20086;-65
2022/05/28 10:49:28;;;;;;;2.90;0.95;;;17.00;99.90;;;;;;4188264;28;20052;-65
2022/05/28 10:51:45;;;;;;;1.13;0.90;;;17.10;99.90;;;;;;4187880;28;20102;-64
2022/05/28 10:54:19;;;;;;;2.65;0.90;;;17.10;99.90;;;;;;4187891;28;20110;-62